sensor_id;sensor_type;location;lat;lon;timestamp;temperature;humidity
17918;DHT22;9084;50.956;3.106;2024-02-21T00:02:09;9.60;99.90
17918;DHT22;9084;50.956;3.106;2024-02-21T00:04:35;9.60;99.90
17918;DHT22;9084;50.956;3.106;2024-02-21T00:07:06;9.60;99.90
17918;DHT22;9084;50.956;3.106;2024-02-21T00:09:34;9.60;99.90
17918;DHT22;9084;50.956;3.106;2024-02-21T00:11:59;9.60;99.90
17918;DHT22;9084;50.956;3.106;2024-02-21T00:14:28;9.70;99.90
17918;DHT22;9084;50.956;3.106;2024-02-21T00:16:54;9.60;99.90
17918;DHT22;9084;50.956;3.106;2024-02-21T00:19:22;9.60;99.90
17918;DHT22;9084;50.956;3.106;2024-02-21T00:21:48;9.70;99.90
17918;DHT22;9084;50.956;3.106;2024-02-21T00:24:13;9.60;99.90
17918;DHT22;9084;50.956;3.106;2024-02-21T00:26:42;9.60;99.90
17918;DHT22;9084;50.956;3.106;2024-02-21T00:29:09;9.60;99.90
17918;DHT22;9084;50.956;3.106;2024-02-21T00:31:35;9.50;99.90
17918;DHT22;9084;50.956;3.106;2024-02-21T00:34:03;9.50;99.90
17918;DHT22;9084;50.956;3.106;2024-02-21T00:36:29;9.50;99.90
17918;DHT22;9084;50.956;3.106;2024-02-21T00:38:54;9.50;99.90
17918;DHT22;9084;50.956;3.106;2024-02-21T00:41:20;9.50;99.90
17918;DHT22;9084;50.956;3.106;2024-02-21T00:43:45;9.40;99.90
17918;DHT22;9084;50.956;3.106;2024-02-21T00:46:13;9.40;99.90
17918;DHT22;9084;50.956;3.106;2024-02-21T00:48:39;9.40;99.90
17918;DHT22;9084;50.956;3.106;2024-02-21T00:51:05;9.30;99.90
17918;DHT22;9084;50.956;3.106;2024-02-21T00:53:30;9.30;99.90
17918;DHT22;9084;50.956;3.106;2024-02-21T00:55:58;9.30;99.90
17918;DHT22;9084;50.956;3.106;2024-02-21T00:58:24;9.30;99.90
17918;DHT22;9084;50.956;3.106;2024-02-21T01:00:54;9.30;99.90
17918;DHT22;9084;50.956;3.106;2024-02-21T01:03:20;9.30;99.90
17918;DHT22;9084;50.956;3.106;2024-02-21T01:05:46;9.30;99.90
17918;DHT22;9084;50.956;3.106;2024-02-21T01:08:11;9.30;99.90
17918;DHT22;9084;50.956;3.106;2024-02-21T01:10:39;9.30;99.90
17918;DHT22;9084;50.956;3.106;2024-02-21T01:13:04;9.30;99.90
17918;DHT22;9084;50.956;3.106;2024-02-21T01:15:31;9.30;99.90
17918;DHT22;9084;50.956;3.106;2024-02-21T01:17:58;9.20;99.90
17918;DHT22;9084;50.956;3.106;2024-02-21T01:20:24;9.20;99.90
17918;DHT22;9084;50.956;3.106;2024-02-21T01:22:52;9.20;99.90
17918;DHT22;9084;50.956;3.106;2024-02-21T01:25:17;9.20;99.90
17918;DHT22;9084;50.956;3.106;2024-02-21T01:27:45;9.20;99.90
17918;DHT22;9084;50.956;3.106;2024-02-21T01:30:11;9.20;99.90
17918;DHT22;9084;50.956;3.106;2024-02-21T01:32:37;9.20;99.90
17918;DHT22;9084;50.956;3.106;2024-02-21T01:35:03;9.30;99.90
17918;DHT22;9084;50.956;3.106;2024-02-21T01:37:28;9.30;99.90
17918;DHT22;9084;50.956;3.106;2024-02-21T01:39:54;9.20;99.90
17918;DHT22;9084;50.956;3.106;2024-02-21T01:42:22;9.20;99.90
17918;DHT22;9084;50.956;3.106;2024-02-21T01:44:47;9.20;99.90
17918;DHT22;9084;50.956;3.106;2024-02-21T01:47:13;9.20;99.90
17918;DHT22;9084;50.956;3.106;2024-02-21T01:49:43;9.30;99.90
17918;DHT22;9084;50.956;3.106;2024-02-21T01:52:09;9.30;99.90
17918;DHT22;9084;50.956;3.106;2024-02-21T01:54:37;9.20;99.90
17918;DHT22;9084;50.956;3.106;2024-02-21T01:57:05;9.20;99.90
17918;DHT22;9084;50.956;3.106;2024-02-21T01:59:31;9.30;99.90
17918;DHT22;9084;50.956;3.106;2024-02-21T02:02:00;9.30;99.90
17918;DHT22;9084;50.956;3.106;2024-02-21T02:04:26;9.30;99.90
17918;DHT22;9084;50.956;3.106;2024-02-21T02:06:54;9.40;99.90
17918;DHT22;9084;50.956;3.106;2024-02-21T02:09:20;9.40;99.90
17918;DHT22;9084;50.956;3.106;2024-02-21T02:11:48;9.40;99.90
17918;DHT22;9084;50.956;3.106;2024-02-21T02:14:13;9.40;99.90
17918;DHT22;9084;50.956;3.106;2024-02-21T02:16:41;9.50;99.90
17918;DHT22;9084;50.956;3.106;2024-02-21T02:19:09;9.50;99.90
17918;DHT22;9084;50.956;3.106;2024-02-21T02:21:42;9.50;99.90
17918;DHT22;9084;50.956;3.106;2024-02-21T02:24:13;9.50;99.90
17918;DHT22;9084;50.956;3.106;2024-02-21T02:26:39;9.50;99.90
17918;DHT22;9084;50.956;3.106;2024-02-21T02:29:05;9.60;99.90
17918;DHT22;9084;50.956;3.106;2024-02-21T02:31:31;9.60;99.90
17918;DHT22;9084;50.956;3.106;2024-02-21T02:33:56;9.60;99.90
17918;DHT22;9084;50.956;3.106;2024-02-21T02:36:24;9.60;99.90
17918;DHT22;9084;50.956;3.106;2024-02-21T02:38:50;9.60;99.90
17918;DHT22;9084;50.956;3.106;2024-02-21T02:41:17;9.60;99.90
17918;DHT22;9084;50.956;3.106;2024-02-21T02:43:43;9.60;99.90
17918;DHT22;9084;50.956;3.106;2024-02-21T02:46:09;9.60;99.90
17918;DHT22;9084;50.956;3.106;2024-02-21T02:48:36;9.70;99.90
17918;DHT22;9084;50.956;3.106;2024-02-21T02:51:04;9.60;99.90
17918;DHT22;9084;50.956;3.106;2024-02-21T02:53:29;9.70;99.90
17918;DHT22;9084;50.956;3.106;2024-02-21T02:55:57;9.70;99.90
17918;DHT22;9084;50.956;3.106;2024-02-21T02:58:28;9.70;99.90
17918;DHT22;9084;50.956;3.106;2024-02-21T03:00:54;9.70;99.90
17918;DHT22;9084;50.956;3.106;2024-02-21T03:03:19;9.70;99.90
17918;DHT22;9084;50.956;3.106;2024-02-21T03:05:47;9.70;99.90
17918;DHT22;9084;50.956;3.106;2024-02-21T03:08:13;9.70;99.90
17918;DHT22;9084;50.956;3.106;2024-02-21T03:10:41;9.70;99.90
17918;DHT22;9084;50.956;3.106;2024-02-21T03:13:09;9.70;99.90
17918;DHT22;9084;50.956;3.106;2024-02-21T03:15:37;9.70;99.90
17918;DHT22;9084;50.956;3.106;2024-02-21T03:18:02;9.70;99.90
17918;DHT22;9084;50.956;3.106;2024-02-21T03:20:34;9.70;99.90
17918;DHT22;9084;50.956;3.106;2024-02-21T03:23:02;9.70;99.90
17918;DHT22;9084;50.956;3.106;2024-02-21T03:25:27;9.70;99.90
17918;DHT22;9084;50.956;3.106;2024-02-21T03:27:55;9.80;99.90
17918;DHT22;9084;50.956;3.106;2024-02-21T03:30:21;9.70;99.90
17918;DHT22;9084;50.956;3.106;2024-02-21T03:32:46;9.80;99.90
17918;DHT22;9084;50.956;3.106;2024-02-21T03:35:12;9.80;99.90
17918;DHT22;9084;50.956;3.106;2024-02-21T03:37:38;9.80;99.90
17918;DHT22;9084;50.956;3.106;2024-02-21T03:40:07;9.80;99.90
17918;DHT22;9084;50.956;3.106;2024-02-21T03:42:33;9.80;99.90
17918;DHT22;9084;50.956;3.106;2024-02-21T03:44:59;9.80;99.90
17918;DHT22;9084;50.956;3.106;2024-02-21T03:47:27;9.80;99.90
17918;DHT22;9084;50.956;3.106;2024-02-21T03:49:54;9.70;99.90
17918;DHT22;9084;50.956;3.106;2024-02-21T03:52:20;9.80;99.90
17918;DHT22;9084;50.956;3.106;2024-02-21T03:54:46;9.70;99.90
17918;DHT22;9084;50.956;3.106;2024-02-21T03:57:14;9.80;99.90
17918;DHT22;9084;50.956;3.106;2024-02-21T03:59:39;9.80;99.90
17918;DHT22;9084;50.956;3.106;2024-02-21T04:02:05;9.70;99.90
17918;DHT22;9084;50.956;3.106;2024-02-21T04:04:36;9.80;99.90
17918;DHT22;9084;50.956;3.106;2024-02-21T04:07:03;9.80;99.90
17918;DHT22;9084;50.956;3.106;2024-02-21T04:09:35;9.70;99.90
17918;DHT22;9084;50.956;3.106;2024-02-21T04:12:03;9.80;99.90
17918;DHT22;9084;50.956;3.106;2024-02-21T04:14:31;9.80;99.90
17918;DHT22;9084;50.956;3.106;2024-02-21T04:16:57;9.70;99.90
17918;DHT22;9084;50.956;3.106;2024-02-21T04:19:23;9.70;99.90
17918;DHT22;9084;50.956;3.106;2024-02-21T04:21:48;9.80;99.90
17918;DHT22;9084;50.956;3.106;2024-02-21T04:24:14;9.70;99.90
17918;DHT22;9084;50.956;3.106;2024-02-21T04:26:42;9.80;99.90
17918;DHT22;9084;50.956;3.106;2024-02-21T04:29:09;9.80;99.90
17918;DHT22;9084;50.956;3.106;2024-02-21T04:31:34;9.80;99.90
17918;DHT22;9084;50.956;3.106;2024-02-21T04:34:00;9.70;99.90
17918;DHT22;9084;50.956;3.106;2024-02-21T04:36:26;9.70;99.90
17918;DHT22;9084;50.956;3.106;2024-02-21T04:38:51;9.70;99.90
17918;DHT22;9084;50.956;3.106;2024-02-21T04:41:19;9.70;99.90
17918;DHT22;9084;50.956;3.106;2024-02-21T04:43:46;9.70;99.90
17918;DHT22;9084;50.956;3.106;2024-02-21T04:46:15;9.70;99.90
17918;DHT22;9084;50.956;3.106;2024-02-21T04:48:41;9.70;99.90
17918;DHT22;9084;50.956;3.106;2024-02-21T04:51:06;9.70;99.90
17918;DHT22;9084;50.956;3.106;2024-02-21T04:53:34;9.70;99.90
17918;DHT22;9084;50.956;3.106;2024-02-21T04:56:00;9.70;99.90
17918;DHT22;9084;50.956;3.106;2024-02-21T04:58:25;9.80;99.90
17918;DHT22;9084;50.956;3.106;2024-02-21T05:00:51;9.70;99.90
17918;DHT22;9084;50.956;3.106;2024-02-21T05:03:20;9.70;99.90
17918;DHT22;9084;50.956;3.106;2024-02-21T05:05:45;9.80;99.90
17918;DHT22;9084;50.956;3.106;2024-02-21T05:08:13;9.70;99.90
17918;DHT22;9084;50.956;3.106;2024-02-21T05:10:39;9.70;99.90
17918;DHT22;9084;50.956;3.106;2024-02-21T05:13:07;9.70;99.90
17918;DHT22;9084;50.956;3.106;2024-02-21T05:15:33;9.70;99.90
17918;DHT22;9084;50.956;3.106;2024-02-21T05:18:00;9.70;99.90
17918;DHT22;9084;50.956;3.106;2024-02-21T05:20:25;9.70;99.90
17918;DHT22;9084;50.956;3.106;2024-02-21T05:22:51;9.70;99.90
17918;DHT22;9084;50.956;3.106;2024-02-21T05:25:19;9.70;99.90
17918;DHT22;9084;50.956;3.106;2024-02-21T05:27:44;9.70;99.90
17918;DHT22;9084;50.956;3.106;2024-02-21T05:30:12;9.70;99.90
17918;DHT22;9084;50.956;3.106;2024-02-21T05:32:37;9.70;99.90
17918;DHT22;9084;50.956;3.106;2024-02-21T05:35:05;9.70;99.90
17918;DHT22;9084;50.956;3.106;2024-02-21T05:37:31;9.70;99.90
17918;DHT22;9084;50.956;3.106;2024-02-21T05:39:57;9.70;99.90
17918;DHT22;9084;50.956;3.106;2024-02-21T05:42:22;9.70;99.90
17918;DHT22;9084;50.956;3.106;2024-02-21T05:44:48;9.80;99.90
17918;DHT22;9084;50.956;3.106;2024-02-21T05:47:16;9.70;99.90
17918;DHT22;9084;50.956;3.106;2024-02-21T05:49:45;9.80;99.90
17918;DHT22;9084;50.956;3.106;2024-02-21T05:52:11;9.70;99.90
17918;DHT22;9084;50.956;3.106;2024-02-21T05:54:40;9.70;99.90
17918;DHT22;9084;50.956;3.106;2024-02-21T05:57:08;9.80;99.90
17918;DHT22;9084;50.956;3.106;2024-02-21T05:59:34;9.80;99.90
17918;DHT22;9084;50.956;3.106;2024-02-21T06:02:01;9.80;99.90
17918;DHT22;9084;50.956;3.106;2024-02-21T06:04:29;9.80;99.90
17918;DHT22;9084;50.956;3.106;2024-02-21T06:06:57;9.80;99.90
17918;DHT22;9084;50.956;3.106;2024-02-21T06:09:25;9.80;99.90
17918;DHT22;9084;50.956;3.106;2024-02-21T06:11:51;9.80;99.90
17918;DHT22;9084;50.956;3.106;2024-02-21T06:14:19;9.80;99.90
17918;DHT22;9084;50.956;3.106;2024-02-21T06:16:45;9.80;99.90
17918;DHT22;9084;50.956;3.106;2024-02-21T06:19:11;9.80;99.90
17918;DHT22;9084;50.956;3.106;2024-02-21T06:21:37;9.80;99.90
17918;DHT22;9084;50.956;3.106;2024-02-21T06:24:05;9.70;99.90
17918;DHT22;9084;50.956;3.106;2024-02-21T06:26:33;9.70;99.90
17918;DHT22;9084;50.956;3.106;2024-02-21T06:28:59;9.80;99.90
17918;DHT22;9084;50.956;3.106;2024-02-21T06:31:28;9.70;99.90
17918;DHT22;9084;50.956;3.106;2024-02-21T06:33:57;9.70;99.90
17918;DHT22;9084;50.956;3.106;2024-02-21T06:36:23;9.70;99.90
17918;DHT22;9084;50.956;3.106;2024-02-21T06:38:48;9.80;99.90
17918;DHT22;9084;50.956;3.106;2024-02-21T06:41:17;9.70;99.90
17918;DHT22;9084;50.956;3.106;2024-02-21T06:43:45;9.70;99.90
17918;DHT22;9084;50.956;3.106;2024-02-21T06:46:11;9.70;99.90
17918;DHT22;9084;50.956;3.106;2024-02-21T06:48:40;9.70;99.90
17918;DHT22;9084;50.956;3.106;2024-02-21T06:51:05;9.70;99.90
17918;DHT22;9084;50.956;3.106;2024-02-21T06:53:31;9.70;99.90
17918;DHT22;9084;50.956;3.106;2024-02-21T06:55:59;9.70;99.90
17918;DHT22;9084;50.956;3.106;2024-02-21T06:58:27;9.70;99.90
17918;DHT22;9084;50.956;3.106;2024-02-21T07:00:54;9.70;99.90
17918;DHT22;9084;50.956;3.106;2024-02-21T07:03:22;9.70;99.90
17918;DHT22;9084;50.956;3.106;2024-02-21T07:05:50;9.70;99.90
17918;DHT22;9084;50.956;3.106;2024-02-21T07:08:18;9.70;99.90
17918;DHT22;9084;50.956;3.106;2024-02-21T07:10:43;9.70;99.90
17918;DHT22;9084;50.956;3.106;2024-02-21T07:13:11;9.70;99.90
17918;DHT22;9084;50.956;3.106;2024-02-21T07:15:39;9.70;99.90
17918;DHT22;9084;50.956;3.106;2024-02-21T07:18:07;9.70;99.90
17918;DHT22;9084;50.956;3.106;2024-02-21T07:20:33;9.70;99.90
17918;DHT22;9084;50.956;3.106;2024-02-21T07:23:01;9.70;99.90
17918;DHT22;9084;50.956;3.106;2024-02-21T07:25:27;9.70;99.90
17918;DHT22;9084;50.956;3.106;2024-02-21T07:27:53;9.70;99.90
17918;DHT22;9084;50.956;3.106;2024-02-21T07:30:21;9.80;99.90
17918;DHT22;9084;50.956;3.106;2024-02-21T07:32:49;9.80;99.90
17918;DHT22;9084;50.956;3.106;2024-02-21T07:35:16;9.70;99.90
17918;DHT22;9084;50.956;3.106;2024-02-21T07:37:41;9.80;99.90
17918;DHT22;9084;50.956;3.106;2024-02-21T07:40:15;9.80;99.90
17918;DHT22;9084;50.956;3.106;2024-02-21T07:42:44;9.80;99.90
17918;DHT22;9084;50.956;3.106;2024-02-21T07:45:12;9.80;99.90
17918;DHT22;9084;50.956;3.106;2024-02-21T07:47:40;9.80;99.90
17918;DHT22;9084;50.956;3.106;2024-02-21T07:50:08;9.80;99.90
17918;DHT22;9084;50.956;3.106;2024-02-21T07:52:34;9.80;99.90
17918;DHT22;9084;50.956;3.106;2024-02-21T07:55:02;9.80;99.90
17918;DHT22;9084;50.956;3.106;2024-02-21T07:57:33;9.80;99.90
17918;DHT22;9084;50.956;3.106;2024-02-21T08:00:01;9.90;99.90
17918;DHT22;9084;50.956;3.106;2024-02-21T08:02:26;9.90;99.90
17918;DHT22;9084;50.956;3.106;2024-02-21T08:04:52;9.80;99.90
17918;DHT22;9084;50.956;3.106;2024-02-21T08:07:18;9.90;99.90
17918;DHT22;9084;50.956;3.106;2024-02-21T08:09:43;9.90;99.90
17918;DHT22;9084;50.956;3.106;2024-02-21T08:12:09;9.90;99.90
17918;DHT22;9084;50.956;3.106;2024-02-21T08:14:35;9.90;99.90
17918;DHT22;9084;50.956;3.106;2024-02-21T08:17:05;9.90;99.90
17918;DHT22;9084;50.956;3.106;2024-02-21T08:19:31;9.90;99.90
17918;DHT22;9084;50.956;3.106;2024-02-21T08:21:56;10.00;99.90
17918;DHT22;9084;50.956;3.106;2024-02-21T08:24:22;10.00;99.90
17918;DHT22;9084;50.956;3.106;2024-02-21T08:26:48;10.00;99.90
17918;DHT22;9084;50.956;3.106;2024-02-21T08:29:14;10.10;99.90
17918;DHT22;9084;50.956;3.106;2024-02-21T08:31:39;10.10;99.90
17918;DHT22;9084;50.956;3.106;2024-02-21T08:34:05;10.10;99.90
17918;DHT22;9084;50.956;3.106;2024-02-21T08:36:31;10.10;99.90
17918;DHT22;9084;50.956;3.106;2024-02-21T08:39:00;10.10;99.90
17918;DHT22;9084;50.956;3.106;2024-02-21T08:41:30;10.10;99.90
17918;DHT22;9084;50.956;3.106;2024-02-21T08:44:01;10.10;99.90
17918;DHT22;9084;50.956;3.106;2024-02-21T08:46:27;10.10;99.90
17918;DHT22;9084;50.956;3.106;2024-02-21T08:48:56;10.20;99.90
17918;DHT22;9084;50.956;3.106;2024-02-21T08:51:22;10.20;99.90
17918;DHT22;9084;50.956;3.106;2024-02-21T08:53:48;10.20;99.90
17918;DHT22;9084;50.956;3.106;2024-02-21T08:56:15;10.20;99.90
17918;DHT22;9084;50.956;3.106;2024-02-21T08:58:41;10.20;99.90
17918;DHT22;9084;50.956;3.106;2024-02-21T09:01:09;10.20;99.90
17918;DHT22;9084;50.956;3.106;2024-02-21T09:03:37;10.20;99.90
17918;DHT22;9084;50.956;3.106;2024-02-21T09:06:07;10.30;99.90
17918;DHT22;9084;50.956;3.106;2024-02-21T09:08:33;10.30;99.90
17918;DHT22;9084;50.956;3.106;2024-02-21T09:11:01;10.40;99.90
17918;DHT22;9084;50.956;3.106;2024-02-21T09:13:27;10.40;99.90
17918;DHT22;9084;50.956;3.106;2024-02-21T09:15:53;10.40;99.90
17918;DHT22;9084;50.956;3.106;2024-02-21T09:18:18;10.50;99.90
17918;DHT22;9084;50.956;3.106;2024-02-21T09:20:44;10.50;99.90
17918;DHT22;9084;50.956;3.106;2024-02-21T09:23:13;10.50;99.90
17918;DHT22;9084;50.956;3.106;2024-02-21T09:25:38;10.50;99.90
17918;DHT22;9084;50.956;3.106;2024-02-21T09:28:05;10.60;99.90
17918;DHT22;9084;50.956;3.106;2024-02-21T09:30:34;10.60;99.90
17918;DHT22;9084;50.956;3.106;2024-02-21T09:33:02;10.60;99.90
17918;DHT22;9084;50.956;3.106;2024-02-21T09:35:30;10.60;99.90
17918;DHT22;9084;50.956;3.106;2024-02-21T09:37:56;10.60;99.90
17918;DHT22;9084;50.956;3.106;2024-02-21T09:40:22;10.60;99.90
17918;DHT22;9084;50.956;3.106;2024-02-21T09:42:50;10.70;99.90
17918;DHT22;9084;50.956;3.106;2024-02-21T09:45:24;10.70;99.90
17918;DHT22;9084;50.956;3.106;2024-02-21T09:50:29;10.70;99.90
17918;DHT22;9084;50.956;3.106;2024-02-21T09:52:58;10.70;99.90
17918;DHT22;9084;50.956;3.106;2024-02-21T09:55:25;10.80;99.90
17918;DHT22;9084;50.956;3.106;2024-02-21T09:57:53;10.70;99.90
17918;DHT22;9084;50.956;3.106;2024-02-21T10:00:24;10.80;99.90
17918;DHT22;9084;50.956;3.106;2024-02-21T10:02:52;10.80;99.90
17918;DHT22;9084;50.956;3.106;2024-02-21T10:05:17;10.80;99.90
17918;DHT22;9084;50.956;3.106;2024-02-21T10:07:43;10.80;99.90
17918;DHT22;9084;50.956;3.106;2024-02-21T10:10:09;10.80;99.90
17918;DHT22;9084;50.956;3.106;2024-02-21T10:12:35;10.80;99.90
17918;DHT22;9084;50.956;3.106;2024-02-21T10:15:05;10.80;99.90
17918;DHT22;9084;50.956;3.106;2024-02-21T10:17:32;10.80;99.90
17918;DHT22;9084;50.956;3.106;2024-02-21T10:20:10;10.70;99.90
17918;DHT22;9084;50.956;3.106;2024-02-21T10:22:38;10.80;99.90
17918;DHT22;9084;50.956;3.106;2024-02-21T10:25:14;10.80;99.90
17918;DHT22;9084;50.956;3.106;2024-02-21T10:27:42;10.80;99.90
17918;DHT22;9084;50.956;3.106;2024-02-21T10:30:13;10.80;99.90
17918;DHT22;9084;50.956;3.106;2024-02-21T10:32:54;10.80;99.90
17918;DHT22;9084;50.956;3.106;2024-02-21T10:37:53;10.20;99.90
17918;DHT22;9084;50.956;3.106;2024-02-21T10:40:27;10.70;99.90
17918;DHT22;9084;50.956;3.106;2024-02-21T10:43:02;10.70;99.90
17918;DHT22;9084;50.956;3.106;2024-02-21T10:45:30;10.70;99.90
17918;DHT22;9084;50.956;3.106;2024-02-21T10:48:12;10.80;99.90
17918;DHT22;9084;50.956;3.106;2024-02-21T10:50:53;10.70;99.90
17918;DHT22;9084;50.956;3.106;2024-02-21T10:56:39;10.70;99.90
17918;DHT22;9084;50.956;3.106;2024-02-21T10:59:06;10.80;99.90
17918;DHT22;9084;50.956;3.106;2024-02-21T11:01:32;10.80;99.90
17918;DHT22;9084;50.956;3.106;2024-02-21T11:04:11;10.80;99.90
17918;DHT22;9084;50.956;3.106;2024-02-21T11:06:41;10.80;99.90
17918;DHT22;9084;50.956;3.106;2024-02-21T11:09:12;10.80;99.90
17918;DHT22;9084;50.956;3.106;2024-02-21T11:11:39;10.80;99.90
17918;DHT22;9084;50.956;3.106;2024-02-21T11:14:08;10.80;99.90
17918;DHT22;9084;50.956;3.106;2024-02-21T11:16:40;10.80;99.90
17918;DHT22;9084;50.956;3.106;2024-02-21T11:19:25;10.80;99.90
17918;DHT22;9084;50.956;3.106;2024-02-21T11:21:52;10.70;99.90
17918;DHT22;9084;50.956;3.106;2024-02-21T11:24:32;10.80;99.90
17918;DHT22;9084;50.956;3.106;2024-02-21T11:27:09;10.80;99.90
17918;DHT22;9084;50.956;3.106;2024-02-21T11:29:49;10.80;99.90
17918;DHT22;9084;50.956;3.106;2024-02-21T11:32:22;10.80;99.90
17918;DHT22;9084;50.956;3.106;2024-02-21T11:34:59;10.90;99.90
17918;DHT22;9084;50.956;3.106;2024-02-21T11:37:32;10.90;99.90
17918;DHT22;9084;50.956;3.106;2024-02-21T11:40:05;11.00;99.90
17918;DHT22;9084;50.956;3.106;2024-02-21T11:42:32;11.00;94.90
17918;DHT22;9084;50.956;3.106;2024-02-21T11:45:00;11.10;93.00
17918;DHT22;9084;50.956;3.106;2024-02-21T11:47:29;11.10;92.30
17918;DHT22;9084;50.956;3.106;2024-02-21T11:49:56;11.10;81.40
17918;DHT22;9084;50.956;3.106;2024-02-21T11:52:25;11.20;74.30
17918;DHT22;9084;50.956;3.106;2024-02-21T11:54:51;11.20;63.10
17918;DHT22;9084;50.956;3.106;2024-02-21T11:57:24;11.20;65.30
17918;DHT22;9084;50.956;3.106;2024-02-21T11:59:53;11.20;61.50
17918;DHT22;9084;50.956;3.106;2024-02-21T12:02:20;11.30;41.70
17918;DHT22;9084;50.956;3.106;2024-02-21T12:04:48;11.40;35.10
17918;DHT22;9084;50.956;3.106;2024-02-21T12:07:14;11.50;27.00
17918;DHT22;9084;50.956;3.106;2024-02-21T12:09:42;11.60;10.10
17918;DHT22;9084;50.956;3.106;2024-02-21T12:12:08;11.70;5.30
17918;DHT22;9084;50.956;3.106;2024-02-21T12:14:35;11.70;1.00
17918;DHT22;9084;50.956;3.106;2024-02-21T12:17:03;11.60;1.00
17918;DHT22;9084;50.956;3.106;2024-02-21T12:19:37;11.60;1.00
17918;DHT22;9084;50.956;3.106;2024-02-21T12:22:05;11.60;1.00
17918;DHT22;9084;50.956;3.106;2024-02-21T12:24:34;11.50;1.00
17918;DHT22;9084;50.956;3.106;2024-02-21T12:27:01;11.50;2.20
17918;DHT22;9084;50.956;3.106;2024-02-21T12:29:31;11.50;3.10
17918;DHT22;9084;50.956;3.106;2024-02-21T12:31:56;11.40;9.50
17918;DHT22;9084;50.956;3.106;2024-02-21T12:34:26;11.40;20.00
17918;DHT22;9084;50.956;3.106;2024-02-21T12:36:52;11.30;42.10
17918;DHT22;9084;50.956;3.106;2024-02-21T12:39:20;11.30;68.70
17918;DHT22;9084;50.956;3.106;2024-02-21T12:41:45;11.20;94.90
17918;DHT22;9084;50.956;3.106;2024-02-21T12:44:11;11.10;99.90
17918;DHT22;9084;50.956;3.106;2024-02-21T12:46:38;11.10;99.90
17918;DHT22;9084;50.956;3.106;2024-02-21T12:49:07;11.00;99.90
17918;DHT22;9084;50.956;3.106;2024-02-21T12:51:38;10.90;99.90
17918;DHT22;9084;50.956;3.106;2024-02-21T12:54:04;10.80;99.90
17918;DHT22;9084;50.956;3.106;2024-02-21T12:56:30;10.70;99.90
17918;DHT22;9084;50.956;3.106;2024-02-21T12:58:59;10.70;99.90
17918;DHT22;9084;50.956;3.106;2024-02-21T13:01:27;10.60;99.90
17918;DHT22;9084;50.956;3.106;2024-02-21T13:03:53;10.60;99.90
17918;DHT22;9084;50.956;3.106;2024-02-21T13:06:19;10.60;99.90
17918;DHT22;9084;50.956;3.106;2024-02-21T13:08:47;10.60;99.90
17918;DHT22;9084;50.956;3.106;2024-02-21T13:11:16;10.60;99.90
17918;DHT22;9084;50.956;3.106;2024-02-21T13:13:42;10.50;99.90
17918;DHT22;9084;50.956;3.106;2024-02-21T13:16:07;10.50;99.90
17918;DHT22;9084;50.956;3.106;2024-02-21T13:18:35;10.60;99.90
17918;DHT22;9084;50.956;3.106;2024-02-21T13:21:04;10.60;99.90
17918;DHT22;9084;50.956;3.106;2024-02-21T13:23:29;10.60;99.90
17918;DHT22;9084;50.956;3.106;2024-02-21T13:25:55;10.60;99.90
17918;DHT22;9084;50.956;3.106;2024-02-21T13:28:23;10.50;99.90
17918;DHT22;9084;50.956;3.106;2024-02-21T13:30:49;10.50;99.90
17918;DHT22;9084;50.956;3.106;2024-02-21T13:33:17;10.40;99.90
17918;DHT22;9084;50.956;3.106;2024-02-21T13:35:42;10.40;99.90
17918;DHT22;9084;50.956;3.106;2024-02-21T13:38:13;10.40;99.90
17918;DHT22;9084;50.956;3.106;2024-02-21T13:40:42;10.30;99.90
17918;DHT22;9084;50.956;3.106;2024-02-21T13:43:10;10.30;99.90
17918;DHT22;9084;50.956;3.106;2024-02-21T13:45:35;10.30;99.90
17918;DHT22;9084;50.956;3.106;2024-02-21T13:48:04;10.30;99.90
17918;DHT22;9084;50.956;3.106;2024-02-21T13:50:32;10.30;99.90
17918;DHT22;9084;50.956;3.106;2024-02-21T13:52:59;10.30;99.90
17918;DHT22;9084;50.956;3.106;2024-02-21T13:55:26;10.20;99.90
17918;DHT22;9084;50.956;3.106;2024-02-21T13:57:54;10.20;99.90
17918;DHT22;9084;50.956;3.106;2024-02-21T14:00:22;10.20;99.90
17918;DHT22;9084;50.956;3.106;2024-02-21T14:02:48;10.20;99.90
17918;DHT22;9084;50.956;3.106;2024-02-21T14:05:13;10.10;99.90
17918;DHT22;9084;50.956;3.106;2024-02-21T14:07:39;10.10;99.90
17918;DHT22;9084;50.956;3.106;2024-02-21T14:10:06;10.10;99.90
17918;DHT22;9084;50.956;3.106;2024-02-21T14:12:32;10.00;99.90
17918;DHT22;9084;50.956;3.106;2024-02-21T14:15:02;10.00;99.90
17918;DHT22;9084;50.956;3.106;2024-02-21T14:17:27;10.00;99.90
17918;DHT22;9084;50.956;3.106;2024-02-21T14:19:53;10.00;99.90
17918;DHT22;9084;50.956;3.106;2024-02-21T14:22:19;10.00;99.90
17918;DHT22;9084;50.956;3.106;2024-02-21T14:24:45;10.00;99.90
17918;DHT22;9084;50.956;3.106;2024-02-21T14:27:11;10.00;99.90
17918;DHT22;9084;50.956;3.106;2024-02-21T14:29:37;10.00;99.90
17918;DHT22;9084;50.956;3.106;2024-02-21T14:32:03;10.00;99.90
17918;DHT22;9084;50.956;3.106;2024-02-21T14:34:30;10.00;99.90
17918;DHT22;9084;50.956;3.106;2024-02-21T14:36:56;10.00;99.90
17918;DHT22;9084;50.956;3.106;2024-02-21T14:39:22;10.00;99.90
17918;DHT22;9084;50.956;3.106;2024-02-21T14:41:48;10.00;99.90
17918;DHT22;9084;50.956;3.106;2024-02-21T14:44:16;10.00;99.90
17918;DHT22;9084;50.956;3.106;2024-02-21T14:46:42;10.00;99.90
17918;DHT22;9084;50.956;3.106;2024-02-21T14:49:10;10.00;99.90
17918;DHT22;9084;50.956;3.106;2024-02-21T14:51:38;10.00;99.90
17918;DHT22;9084;50.956;3.106;2024-02-21T14:54:04;10.00;99.90
17918;DHT22;9084;50.956;3.106;2024-02-21T14:56:29;10.00;99.90
17918;DHT22;9084;50.956;3.106;2024-02-21T14:58:57;10.00;99.90
17918;DHT22;9084;50.956;3.106;2024-02-21T15:01:26;10.00;99.90
17918;DHT22;9084;50.956;3.106;2024-02-21T15:03:51;10.00;99.90
17918;DHT22;9084;50.956;3.106;2024-02-21T15:06:17;10.00;99.90
17918;DHT22;9084;50.956;3.106;2024-02-21T15:08:45;10.00;99.90
17918;DHT22;9084;50.956;3.106;2024-02-21T15:11:14;10.00;99.90
17918;DHT22;9084;50.956;3.106;2024-02-21T15:13:43;10.00;99.90
17918;DHT22;9084;50.956;3.106;2024-02-21T15:16:08;10.00;99.90
17918;DHT22;9084;50.956;3.106;2024-02-21T15:18:34;10.00;99.90
17918;DHT22;9084;50.956;3.106;2024-02-21T15:21:03;10.00;99.90
17918;DHT22;9084;50.956;3.106;2024-02-21T15:23:31;10.00;99.90
17918;DHT22;9084;50.956;3.106;2024-02-21T15:25:57;10.00;99.90
17918;DHT22;9084;50.956;3.106;2024-02-21T15:28:27;10.00;99.90
17918;DHT22;9084;50.956;3.106;2024-02-21T15:30:54;10.10;99.90
17918;DHT22;9084;50.956;3.106;2024-02-21T15:33:20;10.10;99.90
17918;DHT22;9084;50.956;3.106;2024-02-21T15:35:45;10.10;99.90
17918;DHT22;9084;50.956;3.106;2024-02-21T15:38:11;10.10;99.90
17918;DHT22;9084;50.956;3.106;2024-02-21T15:40:36;10.10;99.90
17918;DHT22;9084;50.956;3.106;2024-02-21T15:43:03;10.10;99.90
17918;DHT22;9084;50.956;3.106;2024-02-21T15:45:29;10.10;99.90
17918;DHT22;9084;50.956;3.106;2024-02-21T15:47:56;10.10;99.90
17918;DHT22;9084;50.956;3.106;2024-02-21T15:50:22;10.10;99.90
17918;DHT22;9084;50.956;3.106;2024-02-21T15:52:50;10.10;99.90
17918;DHT22;9084;50.956;3.106;2024-02-21T15:55:16;10.20;99.90
17918;DHT22;9084;50.956;3.106;2024-02-21T15:57:42;10.10;99.90
17918;DHT22;9084;50.956;3.106;2024-02-21T16:00:11;10.10;99.90
17918;DHT22;9084;50.956;3.106;2024-02-21T16:02:39;10.10;99.90
17918;DHT22;9084;50.956;3.106;2024-02-21T16:05:08;10.10;99.90